createdAt,value
2017-11-13T00:00:39.824Z,9.63
2017-11-13T00:03:07.275Z,10.05
2017-11-13T00:05:34.723Z,10.48
2017-11-13T00:08:02.165Z,8.85
2017-11-13T00:10:29.616Z,9.43
2017-11-13T00:12:57.082Z,10.38
2017-11-13T00:15:24.535Z,10.93
2017-11-13T00:17:51.996Z,12.88
2017-11-13T00:20:20.201Z,11.02
2017-11-13T00:22:48.436Z,11.35
2017-11-13T00:25:15.863Z,11.55
2017-11-13T00:27:44.098Z,10.65
2017-11-13T00:30:11.654Z,12.40
2017-11-13T00:32:39.128Z,10.85
2017-11-13T00:35:06.586Z,11.70
2017-11-13T00:37:34.783Z,13.90
2017-11-13T00:40:03.014Z,12.00
2017-11-13T00:42:30.457Z,12.35
2017-11-13T00:44:58.130Z,11.45
2017-11-13T00:47:26.326Z,12.07
2017-11-13T00:49:54.214Z,11.55
2017-11-13T00:52:21.670Z,11.25
2017-11-13T00:54:49.873Z,12.55
2017-11-13T00:57:17.417Z,12.43
2017-11-13T00:59:44.876Z,12.57
2017-11-13T01:02:12.335Z,10.65
2017-11-13T01:04:39.786Z,11.20
2017-11-13T01:07:07.250Z,11.85
2017-11-13T01:09:34.695Z,11.40
2017-11-13T01:12:02.189Z,11.30
2017-11-13T01:14:30.405Z,14.07
2017-11-13T01:16:57.837Z,11.80
2017-11-13T01:19:25.298Z,13.80
2017-11-13T01:21:52.757Z,12.35
2017-11-13T01:24:20.331Z,12.35
2017-11-13T01:26:47.770Z,11.10
2017-11-13T01:29:15.228Z,11.02
2017-11-13T01:31:43.462Z,12.00
2017-11-13T01:34:10.918Z,12.40
2017-11-13T01:36:38.358Z,14.55
2017-11-13T01:39:05.965Z,11.35
2017-11-13T01:41:33.426Z,16.02
2017-11-13T01:44:01.652Z,12.10
2017-11-13T01:46:29.089Z,14.40
2017-11-13T01:48:57.338Z,15.30
2017-11-13T01:51:24.802Z,12.55
2017-11-13T01:53:52.231Z,11.70
2017-11-13T01:56:20.463Z,12.37
2017-11-13T01:58:47.997Z,13.13
2017-11-13T02:01:16.194Z,13.68
2017-11-13T02:03:44.421Z,12.35
2017-11-13T02:06:12.163Z,11.68
2017-11-13T02:08:40.386Z,12.63
2017-11-13T02:11:07.837Z,11.25
2017-11-13T02:13:36.092Z,14.75
2017-11-13T02:16:03.545Z,13.62
2017-11-13T02:18:31.275Z,13.05
2017-11-13T02:21:00.273Z,12.93
2017-11-13T02:23:27.749Z,11.73
2017-11-13T02:25:55.186Z,10.23
2017-11-13T02:28:22.616Z,8.95
2017-11-13T02:30:50.838Z,10.23
2017-11-13T02:33:18.274Z,10.38
2017-11-13T02:35:46.508Z,9.68
2017-11-13T02:38:13.950Z,11.73
2017-11-13T02:40:42.177Z,7.82
2017-11-13T02:43:09.671Z,8.30
2017-11-13T02:45:37.129Z,9.15
2017-11-13T02:48:04.565Z,10.18
2017-11-13T02:50:32.766Z,8.70
2017-11-13T02:53:00.266Z,8.10
2017-11-13T02:55:27.700Z,9.35
2017-11-13T02:57:55.970Z,8.38
2017-11-13T03:00:23.428Z,9.40
2017-11-13T03:02:50.895Z,12.35
2017-11-13T03:05:19.105Z,10.57
2017-11-13T03:07:46.558Z,8.23
2017-11-13T03:10:13.990Z,9.23
2017-11-13T03:12:42.197Z,9.73
2017-11-13T03:15:09.636Z,7.45
2017-11-13T03:17:37.152Z,8.43
2017-11-13T03:20:04.601Z,7.70
2017-11-13T03:22:33.429Z,6.15
2017-11-13T03:25:00.885Z,5.00
2017-11-13T03:27:29.235Z,8.32
2017-11-13T03:29:56.697Z,5.28
2017-11-13T03:32:24.149Z,4.57
2017-11-13T03:34:51.607Z,4.05
2017-11-13T03:37:19.849Z,3.87
2017-11-13T03:39:47.282Z,6.25
2017-11-13T03:42:14.736Z,4.10
2017-11-13T03:44:43.038Z,4.47
2017-11-13T03:47:11.296Z,4.45
2017-11-13T03:49:38.746Z,4.18
2017-11-13T03:52:06.197Z,6.45
2017-11-13T03:54:33.630Z,4.37
2017-11-13T03:57:01.083Z,4.57
2017-11-13T03:59:28.531Z,4.40
2017-11-13T04:01:55.988Z,5.75
2017-11-13T04:04:23.453Z,5.72
2017-11-13T04:06:51.677Z,4.72
2017-11-13T04:09:19.107Z,5.35
2017-11-13T04:11:46.564Z,5.30
2017-11-13T04:14:14.010Z,6.20
2017-11-13T04:16:41.536Z,6.53
2017-11-13T04:19:09.796Z,6.55
2017-11-13T04:21:37.221Z,5.47
2017-11-13T04:24:04.682Z,4.90
2017-11-13T04:26:32.886Z,4.82
2017-11-13T04:29:00.362Z,5.20
2017-11-13T04:31:27.801Z,4.05
2017-11-13T04:33:55.355Z,6.65
2017-11-13T04:36:22.810Z,11.00
2017-11-13T04:38:50.244Z,7.70
2017-11-13T04:41:18.476Z,7.75
2017-11-13T04:43:45.912Z,5.70
2017-11-13T04:46:14.129Z,5.40
2017-11-13T04:48:41.565Z,5.53
2017-11-13T04:51:09.128Z,7.37
2017-11-13T04:53:36.579Z,6.78
2017-11-13T04:56:04.029Z,5.85
2017-11-13T04:58:31.487Z,6.80
2017-11-13T05:00:59.729Z,5.78
2017-11-13T05:03:27.193Z,7.35
2017-11-13T05:05:54.665Z,5.60
2017-11-13T05:08:22.113Z,6.65
2017-11-13T05:10:49.545Z,5.97
2017-11-13T05:13:16.999Z,6.82
2017-11-13T05:15:45.216Z,8.05
2017-11-13T05:18:12.666Z,7.03
2017-11-13T05:20:40.123Z,6.32
2017-11-13T05:23:07.583Z,5.85
2017-11-13T05:25:35.051Z,7.07
2017-11-13T05:28:03.248Z,6.50
2017-11-13T05:30:30.677Z,7.03
2017-11-13T05:32:58.125Z,6.95
2017-11-13T05:35:25.566Z,9.38
2017-11-13T05:37:53.148Z,7.70
2017-11-13T05:40:20.590Z,8.13
2017-11-13T05:42:48.041Z,8.18
2017-11-13T05:45:16.245Z,7.47
2017-11-13T05:47:43.768Z,7.60
2017-11-13T05:50:11.182Z,8.63
2017-11-13T05:52:38.686Z,7.72
2017-11-13T05:55:06.137Z,9.50
2017-11-13T05:57:34.339Z,9.90
2017-11-13T06:00:01.790Z,8.40
2017-11-13T06:02:29.226Z,9.25
2017-11-13T06:04:56.686Z,9.55
2017-11-13T06:07:24.895Z,13.18
2017-11-13T06:09:52.353Z,10.13
2017-11-13T06:12:20.567Z,10.75
2017-11-13T06:14:48.037Z,11.02
2017-11-13T06:17:15.466Z,10.73
2017-11-13T06:19:42.922Z,11.50
2017-11-13T06:22:10.373Z,11.73
2017-11-13T06:24:37.835Z,12.75
2017-11-13T06:27:05.410Z,15.23
2017-11-13T06:29:33.069Z,12.68
2017-11-13T06:32:01.323Z,12.65
2017-11-13T06:34:29.417Z,13.38
2017-11-13T06:36:56.854Z,11.95
2017-11-13T06:39:24.309Z,13.35
2017-11-13T06:41:52.509Z,11.68
2017-11-13T06:44:19.945Z,15.25
2017-11-13T06:46:47.464Z,12.85
2017-11-13T06:49:14.900Z,13.80
2017-11-13T06:51:42.387Z,12.45
2017-11-13T06:54:09.865Z,13.55
2017-11-13T06:56:42.391Z,12.80
2017-11-13T06:59:09.833Z,11.68
2017-11-13T07:01:38.064Z,14.60
2017-11-13T07:04:05.521Z,13.23
2017-11-13T07:06:32.990Z,14.10
2017-11-13T07:09:00.434Z,12.25
2017-11-13T07:11:27.976Z,12.65
2017-11-13T07:13:55.420Z,12.35
2017-11-13T07:16:22.884Z,13.50
2017-11-13T07:18:51.105Z,11.52
2017-11-13T07:21:18.549Z,15.10
2017-11-13T07:23:46.786Z,13.32
2017-11-13T07:26:14.265Z,13.52
2017-11-13T07:28:41.835Z,13.43
2017-11-13T07:31:09.301Z,12.73
2017-11-13T07:33:36.761Z,13.98
2017-11-13T07:36:04.232Z,14.75
2017-11-13T07:38:31.706Z,16.55
2017-11-13T07:40:59.195Z,10.15
2017-11-13T07:43:26.662Z,14.93
2017-11-13T07:45:54.143Z,13.57
2017-11-13T07:48:21.602Z,13.55
2017-11-13T07:50:49.196Z,10.18
2017-11-13T07:53:16.641Z,13.77
2017-11-13T07:55:44.861Z,10.80
2017-11-13T07:58:12.320Z,10.10
2017-11-13T08:00:39.756Z,8.88
2017-11-13T08:03:07.223Z,7.70
2017-11-13T08:05:35.438Z,9.05
2017-11-13T08:08:03.663Z,6.62
2017-11-13T08:10:31.150Z,8.18
2017-11-13T08:12:58.609Z,5.72
2017-11-13T08:15:26.050Z,6.95
2017-11-13T08:17:53.493Z,6.62
2017-11-13T08:20:20.958Z,7.53
2017-11-13T08:22:48.408Z,6.40
2017-11-13T08:25:16.101Z,6.85
2017-11-13T08:27:43.566Z,7.55
2017-11-13T08:30:11.080Z,5.90
2017-11-13T08:32:39.295Z,9.68
2017-11-13T08:35:06.829Z,7.20
2017-11-13T08:37:34.266Z,5.50
2017-11-13T08:40:02.486Z,8.00
2017-11-13T08:42:29.937Z,8.48
2017-11-13T08:44:57.421Z,6.32
2017-11-13T08:47:24.899Z,7.43
2017-11-13T08:49:52.333Z,5.25
2017-11-13T08:52:19.799Z,7.25
2017-11-13T08:54:47.230Z,5.20
2017-11-13T08:57:18.605Z,5.18
2017-11-13T08:59:46.089Z,5.70
2017-11-13T09:02:13.536Z,6.57
2017-11-13T09:04:40.992Z,4.40
2017-11-13T09:07:09.241Z,5.87
2017-11-13T09:09:36.697Z,3.60
2017-11-13T09:12:04.161Z,11.65
2017-11-13T09:14:31.617Z,6.35
2017-11-13T09:16:59.054Z,4.90
2017-11-13T09:19:26.527Z,5.22
2017-11-13T09:21:53.990Z,4.95
2017-11-13T09:24:21.428Z,7.28
2017-11-13T09:26:49.575Z,3.53
2017-11-13T09:29:17.007Z,3.55
2017-11-13T09:31:44.470Z,3.80
2017-11-13T09:34:11.901Z,5.55
2017-11-13T09:36:39.417Z,3.08
2017-11-13T09:39:06.852Z,6.93
2017-11-13T09:41:34.337Z,6.80
2017-11-13T09:44:02.565Z,6.72
2017-11-13T09:46:30.753Z,5.03
2017-11-13T09:48:58.218Z,3.33
2017-11-13T09:51:25.957Z,7.72
2017-11-13T09:53:53.415Z,2.90
2017-11-13T09:56:20.857Z,5.70
2017-11-13T09:58:48.325Z,3.40
2017-11-13T10:01:15.759Z,8.82
2017-11-13T10:03:43.362Z,4.55
2017-11-13T10:06:11.565Z,5.55
2017-11-13T10:08:39.145Z,8.52
2017-11-13T10:11:07.338Z,6.87
2017-11-13T10:13:34.788Z,5.47
2017-11-13T10:16:03.004Z,8.63
2017-11-13T10:18:30.494Z,4.10
2017-11-13T10:20:58.045Z,6.32
2017-11-13T10:23:26.245Z,7.30
2017-11-13T10:25:53.704Z,5.22
2017-11-13T10:28:21.912Z,4.03
2017-11-13T10:30:49.388Z,11.88
2017-11-13T10:33:16.818Z,4.00
2017-11-13T10:35:44.289Z,6.80
2017-11-13T10:38:11.781Z,6.20
2017-11-13T10:40:39.217Z,9.35
2017-11-13T10:43:06.674Z,6.05
2017-11-13T10:45:34.148Z,8.50
2017-11-13T10:48:02.199Z,7.45
2017-11-13T10:50:30.430Z,6.00
2017-11-13T10:52:57.892Z,4.15
2017-11-13T10:55:25.825Z,4.75
2017-11-13T10:57:53.279Z,3.62
2017-11-13T11:00:20.705Z,4.45
2017-11-13T11:02:48.962Z,4.45
2017-11-13T11:05:16.474Z,3.67
2017-11-13T11:07:44.685Z,5.50
2017-11-13T11:10:12.125Z,6.47
2017-11-13T11:12:39.639Z,7.62
2017-11-13T11:15:19.966Z,5.12
2017-11-13T11:17:49.367Z,8.73
2017-11-13T11:20:20.461Z,5.28
2017-11-13T11:23:00.545Z,11.65
2017-11-13T11:25:31.041Z,6.90
2017-11-13T11:27:58.473Z,6.55
2017-11-13T11:30:29.741Z,5.70
2017-11-13T11:32:59.722Z,2.72
2017-11-13T11:35:32.817Z,7.30
2017-11-13T11:38:00.275Z,2.70
2017-11-13T11:40:28.324Z,2.87
2017-11-13T11:42:55.761Z,4.72
2017-11-13T11:45:27.138Z,12.43
2017-11-13T11:48:12.083Z,5.82
2017-11-13T11:50:39.527Z,5.43
2017-11-13T11:53:08.038Z,2.60
2017-11-13T11:55:52.274Z,5.20
2017-11-13T11:58:19.733Z,6.12
2017-11-13T12:00:47.187Z,4.07
2017-11-13T12:03:15.409Z,2.47
2017-11-13T12:05:42.864Z,5.07
2017-11-13T12:08:11.108Z,2.65
2017-11-13T12:10:38.577Z,5.12
2017-11-13T12:13:06.029Z,3.03
2017-11-13T12:15:33.530Z,5.00
2017-11-13T12:18:00.989Z,2.40
2017-11-13T12:20:28.455Z,6.53
2017-11-13T12:22:55.913Z,4.10
2017-11-13T12:25:23.365Z,2.90
2017-11-13T12:27:50.823Z,4.10
2017-11-13T12:30:18.283Z,3.40
2017-11-13T12:32:45.862Z,3.17
2017-11-13T12:35:13.594Z,3.10
2017-11-13T12:37:41.818Z,3.00
2017-11-13T12:40:10.107Z,6.90
2017-11-13T12:42:37.570Z,4.03
2017-11-13T12:45:05.035Z,4.45
2017-11-13T12:47:32.476Z,2.55
2017-11-13T12:49:59.941Z,3.12
2017-11-13T12:52:32.029Z,6.55
2017-11-13T12:54:59.490Z,3.70
2017-11-13T12:57:26.982Z,3.33
2017-11-13T12:59:54.445Z,4.15
2017-11-13T13:02:21.916Z,3.25
2017-11-13T13:04:49.370Z,2.70
2017-11-13T13:07:16.824Z,3.42
2017-11-13T13:09:44.282Z,1.02
2017-11-13T13:12:12.507Z,3.47
2017-11-13T13:14:39.962Z,2.60
2017-11-13T13:17:07.449Z,3.12
2017-11-13T13:19:34.895Z,2.90
2017-11-13T13:22:03.135Z,2.67
2017-11-13T13:24:30.602Z,2.80
2017-11-13T13:26:58.045Z,2.90
2017-11-13T13:29:26.280Z,3.23
2017-11-13T13:31:53.735Z,4.62
2017-11-13T13:34:21.282Z,4.80
2017-11-13T13:36:49.536Z,4.60
2017-11-13T13:39:17.001Z,1.58
2017-11-13T13:41:44.476Z,4.47
2017-11-13T13:44:11.926Z,3.47
2017-11-13T13:46:39.401Z,4.37
2017-11-13T13:49:06.841Z,3.08
2017-11-13T13:51:35.098Z,3.72
2017-11-13T13:54:02.579Z,2.85
2017-11-13T13:56:30.011Z,5.90
2017-11-13T13:58:58.249Z,3.08
2017-11-13T14:01:25.697Z,5.00
2017-11-13T14:03:53.151Z,3.30
2017-11-13T14:06:21.610Z,3.28
2017-11-13T14:08:49.053Z,1.60
2017-11-13T14:11:16.556Z,4.07
2017-11-13T14:13:44.052Z,4.80
2017-11-13T14:16:12.358Z,2.75
2017-11-13T14:18:40.616Z,2.12
2017-11-13T14:21:08.114Z,2.55
2017-11-13T14:23:36.359Z,1.60
2017-11-13T14:26:03.837Z,5.12
2017-11-13T14:28:31.313Z,3.33
2017-11-13T14:30:58.769Z,1.58
2017-11-13T14:33:26.241Z,3.08
2017-11-13T14:35:53.704Z,3.35
2017-11-13T14:38:21.157Z,6.22
2017-11-13T14:40:49.386Z,5.55
2017-11-13T14:43:16.831Z,5.22
2017-11-13T14:45:45.059Z,5.07
2017-11-13T14:48:12.492Z,2.33
2017-11-13T14:50:40.720Z,1.73
2017-11-13T14:53:08.180Z,3.22
2017-11-13T14:55:35.634Z,3.05
2017-11-13T14:58:03.853Z,4.20
2017-11-13T15:00:31.367Z,3.17
2017-11-13T15:02:58.816Z,5.47
2017-11-13T15:05:26.275Z,2.85
2017-11-13T15:07:53.737Z,1.67
2017-11-13T15:10:21.970Z,3.50
2017-11-13T15:12:49.426Z,5.87
2017-11-13T15:15:16.869Z,21.65
2017-11-13T15:17:45.091Z,4.85
2017-11-13T15:20:12.530Z,4.85
2017-11-13T15:22:44.977Z,6.05
2017-11-13T15:25:12.421Z,3.55
2017-11-13T15:27:39.865Z,5.28
2017-11-13T15:30:08.133Z,6.97
2017-11-13T15:32:35.662Z,1.90
2017-11-13T15:35:03.916Z,7.70
2017-11-13T15:37:31.361Z,3.90
2017-11-13T15:39:58.841Z,1.98
2017-11-13T15:42:26.275Z,5.18
2017-11-13T15:44:53.724Z,2.90
2017-11-13T15:47:21.183Z,3.20
2017-11-13T15:49:48.613Z,3.08
2017-11-13T15:52:16.092Z,2.30
2017-11-13T15:54:44.061Z,4.18
2017-11-13T15:57:11.516Z,2.15
2017-11-13T15:59:39.733Z,3.05
2017-11-13T16:02:07.188Z,3.20
2017-11-13T16:04:35.407Z,1.42
2017-11-13T16:07:02.889Z,2.25
2017-11-13T16:09:30.324Z,3.10
2017-11-13T16:11:58.561Z,4.07
2017-11-13T16:14:26.077Z,1.75
2017-11-13T16:16:53.797Z,3.83
2017-11-13T16:19:22.002Z,3.45
2017-11-13T16:21:49.469Z,3.50
2017-11-13T16:24:16.900Z,5.15
2017-11-13T16:26:45.082Z,3.17
2017-11-13T16:29:12.526Z,2.60
2017-11-13T16:31:39.990Z,3.95
2017-11-13T16:34:07.452Z,4.47
2017-11-13T16:36:34.897Z,5.12
2017-11-13T16:39:02.756Z,3.30
2017-11-13T16:41:30.196Z,2.55
2017-11-13T16:43:57.665Z,9.95
2017-11-13T16:46:25.108Z,5.15
2017-11-13T16:48:53.337Z,3.80
2017-11-13T16:51:20.831Z,6.00
2017-11-13T16:53:48.277Z,6.95
2017-11-13T16:56:15.729Z,4.43
2017-11-13T16:58:43.923Z,5.12
2017-11-13T17:01:12.152Z,4.37
2017-11-13T17:03:39.585Z,7.10
2017-11-13T17:06:07.829Z,8.13
2017-11-13T17:08:35.276Z,4.62
2017-11-13T17:11:02.711Z,4.47
2017-11-13T17:13:30.162Z,4.32
2017-11-13T17:15:57.632Z,5.18
2017-11-13T17:18:25.104Z,4.68
2017-11-13T17:20:52.534Z,4.70
2017-11-13T17:23:21.097Z,3.33
2017-11-13T17:25:48.600Z,6.93
2017-11-13T17:28:16.103Z,7.07
2017-11-13T17:30:44.627Z,8.68
2017-11-13T17:33:12.102Z,9.13
2017-11-13T17:35:39.600Z,3.20
2017-11-13T17:38:07.064Z,6.30
2017-11-13T17:40:34.517Z,6.80
2017-11-13T17:43:01.958Z,7.87
2017-11-13T17:45:30.210Z,4.25
2017-11-13T17:47:57.667Z,5.62
2017-11-13T17:50:25.118Z,5.40
2017-11-13T17:52:52.577Z,7.15
2017-11-13T17:55:21.729Z,5.10
2017-11-13T17:57:49.168Z,3.62
2017-11-13T18:00:17.386Z,5.60
2017-11-13T18:02:44.850Z,6.97
2017-11-13T18:05:16.605Z,7.62
2017-11-13T18:07:44.822Z,7.07
2017-11-13T18:10:12.262Z,6.40
2017-11-13T18:12:40.498Z,6.10
2017-11-13T18:15:07.931Z,7.55
2017-11-13T18:17:36.145Z,5.07
2017-11-13T18:20:03.621Z,5.10
2017-11-13T18:22:31.085Z,6.47
2017-11-13T18:24:58.513Z,6.32
2017-11-13T18:27:26.000Z,5.80
2017-11-13T18:29:53.451Z,7.93
2017-11-13T18:32:20.885Z,5.72
2017-11-13T18:34:48.382Z,10.02
2017-11-13T18:37:15.813Z,8.10
2017-11-13T18:39:44.058Z,11.93
2017-11-13T18:42:11.645Z,10.93
2017-11-13T18:44:39.122Z,6.65
2017-11-13T18:47:06.558Z,11.60
2017-11-13T18:49:38.178Z,9.88
2017-11-13T18:52:05.605Z,11.80
2017-11-13T18:54:33.096Z,7.20
2017-11-13T18:57:00.541Z,8.50
2017-11-13T18:59:28.766Z,8.65
2017-11-13T19:01:56.189Z,11.30
2017-11-13T19:04:24.420Z,7.47
2017-11-13T19:06:51.860Z,9.05
2017-11-13T19:09:19.322Z,7.70
2017-11-13T19:11:46.757Z,9.95
2017-11-13T19:14:14.257Z,9.57
2017-11-13T19:16:41.678Z,9.27
2017-11-13T19:19:09.231Z,9.13
2017-11-13T19:21:36.690Z,6.93
2017-11-13T19:24:04.124Z,11.18
2017-11-13T19:26:31.657Z,8.43
2017-11-13T19:28:59.123Z,8.63
2017-11-13T19:31:27.257Z,15.45
2017-11-13T19:33:55.476Z,9.75
2017-11-13T19:36:22.912Z,12.82
2017-11-13T19:38:50.392Z,12.00
2017-11-13T19:41:17.863Z,6.37
2017-11-13T19:43:46.054Z,11.68
2017-11-13T19:46:14.239Z,10.45
2017-11-13T19:48:41.667Z,16.85
2017-11-13T19:51:09.123Z,8.50
2017-11-13T19:53:36.587Z,9.85
2017-11-13T19:56:04.065Z,8.63
2017-11-13T19:58:31.813Z,14.60
2017-11-13T20:01:00.044Z,11.02
2017-11-13T20:03:27.482Z,15.65
2017-11-13T20:05:55.706Z,11.38
2017-11-13T20:08:23.515Z,14.05
2017-11-13T20:10:50.967Z,8.35
2017-11-13T20:13:18.411Z,13.98
2017-11-13T20:15:49.881Z,11.77
2017-11-13T20:18:18.131Z,10.63
2017-11-13T20:20:45.622Z,12.52
2017-11-13T20:23:13.080Z,12.13
2017-11-13T20:25:40.551Z,8.27
2017-11-13T20:28:08.646Z,10.93
2017-11-13T20:30:36.097Z,7.50
2017-11-13T20:33:03.626Z,14.63
2017-11-13T20:35:31.862Z,11.82
2017-11-13T20:37:59.325Z,10.82
2017-11-13T20:40:26.848Z,10.57
2017-11-13T20:42:54.333Z,9.23
2017-11-13T20:45:21.785Z,11.90
2017-11-13T20:47:51.584Z,13.70
2017-11-13T20:50:19.137Z,11.35
2017-11-13T20:52:47.424Z,13.85
2017-11-13T20:55:15.657Z,10.43
2017-11-13T20:57:43.102Z,9.10
2017-11-13T21:00:10.611Z,12.27
2017-11-13T21:02:38.201Z,9.18
2017-11-13T21:05:05.654Z,8.68
2017-11-13T21:07:33.101Z,12.57
2017-11-13T21:10:00.558Z,15.23
2017-11-13T21:12:28.773Z,8.63
2017-11-13T21:14:56.560Z,14.63
2017-11-13T21:17:24.853Z,12.43
2017-11-13T21:19:52.329Z,11.63
2017-11-13T21:22:19.775Z,12.20
2017-11-13T21:24:48.291Z,11.25
2017-11-13T21:27:16.060Z,17.48
2017-11-13T21:29:44.354Z,11.57
2017-11-13T21:32:11.785Z,10.27
2017-11-13T21:34:39.245Z,12.82
2017-11-13T21:37:06.722Z,17.17
2017-11-13T21:39:34.178Z,12.05
2017-11-13T21:42:01.619Z,14.18
2017-11-13T21:44:29.075Z,13.07
2017-11-13T21:46:56.548Z,13.75
2017-11-13T21:49:24.211Z,15.18
2017-11-13T21:51:51.669Z,14.23
2017-11-13T21:54:20.137Z,16.17
2017-11-13T21:56:48.382Z,14.98
2017-11-13T21:59:15.823Z,13.23
2017-11-13T22:01:43.322Z,14.55
2017-11-13T22:04:10.783Z,14.32
2017-11-13T22:06:38.221Z,15.35
2017-11-13T22:09:06.445Z,19.55
2017-11-13T22:11:33.926Z,18.17
2017-11-13T22:14:01.451Z,14.57
2017-11-13T22:16:28.925Z,15.88
2017-11-13T22:18:56.379Z,14.55
2017-11-13T22:21:23.856Z,21.20
2017-11-13T22:23:51.328Z,22.98
2017-11-13T22:26:18.765Z,14.65
2017-11-13T22:28:46.226Z,13.90
2017-11-13T22:31:13.683Z,14.93
2017-11-13T22:33:41.150Z,18.62
2017-11-13T22:36:08.585Z,12.90
2017-11-13T22:38:36.049Z,16.20
2017-11-13T22:41:03.617Z,13.23
2017-11-13T22:43:31.097Z,18.37
2017-11-13T22:45:58.544Z,12.20
2017-11-13T22:48:26.752Z,21.15
2017-11-13T22:50:58.234Z,13.80
2017-11-13T22:53:25.697Z,26.27
2017-11-13T22:55:53.165Z,13.38
2017-11-13T22:58:20.602Z,17.52
2017-11-13T23:00:48.103Z,18.35
2017-11-13T23:03:16.334Z,17.40
2017-11-13T23:05:43.803Z,16.77
2017-11-13T23:08:12.241Z,15.10
2017-11-13T23:10:39.704Z,14.10
2017-11-13T23:13:07.169Z,20.00
2017-11-13T23:15:34.644Z,14.27
2017-11-13T23:18:02.118Z,17.25
2017-11-13T23:20:29.854Z,19.65
2017-11-13T23:22:58.054Z,17.42
2017-11-13T23:25:25.513Z,17.62
2017-11-13T23:27:53.726Z,16.05
2017-11-13T23:30:21.185Z,15.77
2017-11-13T23:32:49.435Z,16.58
2017-11-13T23:35:16.892Z,15.65
2017-11-13T23:37:44.330Z,13.65
2017-11-13T23:40:12.556Z,13.18
2017-11-13T23:42:40.018Z,14.10
2017-11-13T23:45:08.322Z,18.98
2017-11-13T23:47:35.788Z,11.48
2017-11-13T23:50:03.878Z,10.18
2017-11-13T23:52:31.301Z,12.40
2017-11-13T23:54:58.746Z,18.73
2017-11-13T23:57:26.204Z,14.80
2017-11-13T23:59:53.649Z,13.75
